createdAt,value
2018-04-08T00:03:16.605Z,10.88
2018-04-08T00:09:20.950Z,10.90
2018-04-08T00:15:25.295Z,11.00
2018-04-08T00:21:29.648Z,10.95
2018-04-08T00:27:33.990Z,10.80
2018-04-08T00:33:39.103Z,10.75
2018-04-08T00:39:43.455Z,10.43
2018-04-08T00:45:47.832Z,10.46
2018-04-08T00:51:52.162Z,10.20
2018-04-08T00:57:56.500Z,10.25
2018-04-08T01:04:00.537Z,10.26
2018-04-08T01:10:04.566Z,10.40
2018-04-08T01:16:08.594Z,10.79
2018-04-08T01:22:12.703Z,10.97
2018-04-08T01:28:17.043Z,10.84
2018-04-08T01:34:21.406Z,10.92
2018-04-08T01:40:25.757Z,10.72
2018-04-08T01:46:30.094Z,10.76
2018-04-08T01:52:34.473Z,10.77
2018-04-08T01:58:39.598Z,10.80
2018-04-08T02:04:43.949Z,10.77
2018-04-08T02:10:48.287Z,10.90
2018-04-08T02:16:52.641Z,10.77
2018-04-08T02:22:57.754Z,10.71
2018-04-08T02:29:02.105Z,10.89
2018-04-08T02:35:06.461Z,10.66
2018-04-08T02:41:10.794Z,10.66
2018-04-08T02:47:15.152Z,10.49
2018-04-08T02:53:19.502Z,10.55
2018-04-08T02:59:24.613Z,10.42
2018-04-08T03:05:28.958Z,10.40
2018-04-08T03:11:33.290Z,10.49
2018-04-08T03:17:37.631Z,10.27
2018-04-08T03:23:41.975Z,10.05
2018-04-08T03:29:46.317Z,9.95
2018-04-08T03:35:50.653Z,9.81
2018-04-08T03:41:54.996Z,9.81
2018-04-08T03:47:59.335Z,9.80
2018-04-08T03:54:03.691Z,10.09
2018-04-08T04:00:08.027Z,10.06
2018-04-08T04:06:12.351Z,9.69
2018-04-08T04:12:16.686Z,9.78
2018-04-08T04:18:38.578Z,9.77
2018-04-08T04:25:20.500Z,9.51
2018-04-08T04:31:24.842Z,9.61
2018-04-08T04:37:29.179Z,9.44
2018-04-08T04:43:33.533Z,9.51
2018-04-08T04:49:37.864Z,9.58
2018-04-08T04:55:42.201Z,9.53
2018-04-08T05:01:46.531Z,9.53
2018-04-08T05:07:50.878Z,9.90
2018-04-08T05:13:55.225Z,9.84
2018-04-08T05:19:59.554Z,9.94
2018-04-08T05:26:03.921Z,10.23
2018-04-08T05:32:08.277Z,10.27
2018-04-08T05:38:13.379Z,10.18
2018-04-08T05:44:17.724Z,10.39
2018-04-08T05:50:22.058Z,10.39
2018-04-08T05:56:26.403Z,10.45
2018-04-08T06:02:30.749Z,10.64
2018-04-08T06:08:35.078Z,10.57
2018-04-08T06:14:39.437Z,10.72
2018-04-08T06:20:43.760Z,10.88
2018-04-08T06:26:48.106Z,11.08
2018-04-08T06:32:52.471Z,11.38
2018-04-08T06:38:56.820Z,11.37
2018-04-08T06:45:01.158Z,11.67
2018-04-08T06:51:05.500Z,14.21
2018-04-08T06:57:09.859Z,19.92
2018-04-08T07:03:14.203Z,22.54
2018-04-08T07:09:18.532Z,24.26
2018-04-08T07:15:22.887Z,21.88
2018-04-08T07:21:27.229Z,19.30
2018-04-08T07:27:32.370Z,17.35
2018-04-08T07:33:36.753Z,16.80
2018-04-08T07:39:41.081Z,16.48
2018-04-08T07:45:45.417Z,17.07
2018-04-08T07:51:50.525Z,17.26
2018-04-08T07:57:54.858Z,17.59
2018-04-08T08:03:59.204Z,18.26
2018-04-08T08:10:03.548Z,18.54
2018-04-08T08:16:07.899Z,18.99
2018-04-08T08:22:12.258Z,19.43
2018-04-08T08:28:16.612Z,19.81
2018-04-08T08:34:21.712Z,19.98
2018-04-08T08:40:26.062Z,20.27
2018-04-08T08:46:31.193Z,20.24
2018-04-08T08:52:35.551Z,20.74
2018-04-08T08:58:39.896Z,20.74
2018-04-08T09:04:44.251Z,21.73
2018-04-08T09:10:48.601Z,22.56
2018-04-08T09:16:52.972Z,22.88
2018-04-08T09:23:03.739Z,24.28
2018-04-08T09:29:09.662Z,25.42
2018-04-08T09:35:14.078Z,26.42
2018-04-08T09:41:18.462Z,27.35
2018-04-08T09:47:22.905Z,28.15
2018-04-08T09:53:27.282Z,29.79
2018-04-08T09:59:31.720Z,30.54
2018-04-08T10:05:36.153Z,31.67
2018-04-08T10:11:41.307Z,33.24
2018-04-08T10:17:45.689Z,34.51
2018-04-08T10:23:50.868Z,34.83
2018-04-08T10:29:55.270Z,36.62
2018-04-08T10:35:59.626Z,37.59
2018-04-08T10:42:03.975Z,38.40
2018-04-08T10:48:09.145Z,39.81
2018-04-08T10:54:14.269Z,39.74
2018-04-08T11:00:18.632Z,38.95
2018-04-08T11:06:23.754Z,35.76
2018-04-08T11:12:28.109Z,35.06
2018-04-08T11:18:32.447Z,36.93
2018-04-08T11:24:36.814Z,37.51
2018-04-08T11:30:41.168Z,38.08
2018-04-08T11:36:46.296Z,39.27
2018-04-08T11:42:50.652Z,39.69
2018-04-08T11:48:55.767Z,37.76
2018-04-08T11:55:00.965Z,39.20
2018-04-08T12:01:05.343Z,39.39
2018-04-08T12:07:09.718Z,40.08
2018-04-08T12:13:14.902Z,39.70
2018-04-08T12:19:19.241Z,39.87
2018-04-08T12:25:23.598Z,40.28
2018-04-08T12:31:28.723Z,40.01
2018-04-08T12:37:33.073Z,39.18
2018-04-08T12:43:37.422Z,40.79
2018-04-08T12:49:41.805Z,41.25
2018-04-08T12:55:46.923Z,42.04
2018-04-08T13:01:51.277Z,41.86
2018-04-08T13:07:55.633Z,40.96
2018-04-08T13:14:00.762Z,41.84
2018-04-08T13:20:05.106Z,42.40
2018-04-08T13:26:09.467Z,42.26
2018-04-08T13:32:13.818Z,42.62
2018-04-08T13:38:18.940Z,42.24
2018-04-08T13:44:23.274Z,42.57
2018-04-08T13:50:27.600Z,42.15
2018-04-08T13:56:31.946Z,41.92
2018-04-08T14:02:36.292Z,41.99
2018-04-08T14:08:40.646Z,40.96
2018-04-08T14:14:45.021Z,40.22
2018-04-08T14:20:50.179Z,40.36
2018-04-08T14:26:54.523Z,41.44
2018-04-08T14:32:59.641Z,40.60
2018-04-08T14:39:03.985Z,40.58
2018-04-08T14:45:08.362Z,40.98
2018-04-08T14:51:13.541Z,40.42
2018-04-08T14:57:17.949Z,40.90
2018-04-08T15:03:22.376Z,41.31
2018-04-08T15:09:26.765Z,41.64
2018-04-08T15:15:31.183Z,40.42
2018-04-08T15:21:36.356Z,41.13
2018-04-08T15:27:40.765Z,39.73
2018-04-08T15:33:45.166Z,37.15
2018-04-08T15:39:49.569Z,39.30
2018-04-08T15:45:53.926Z,38.30
2018-04-08T15:51:58.267Z,36.79
2018-04-08T15:58:02.630Z,37.17
2018-04-08T16:04:06.972Z,38.34
2018-04-08T16:10:11.314Z,39.89
2018-04-08T16:16:15.664Z,40.36
2018-04-08T16:22:20.018Z,40.66
2018-04-08T16:28:24.364Z,38.39
2018-04-08T16:34:28.707Z,37.21
2018-04-08T16:40:33.046Z,34.32
2018-04-08T16:46:37.395Z,32.99
2018-04-08T16:52:41.724Z,34.42
2018-04-08T16:58:46.068Z,33.92
2018-04-08T17:04:50.406Z,32.42
2018-04-08T17:10:54.819Z,31.89
2018-04-08T17:16:59.163Z,30.49
2018-04-08T17:23:03.523Z,28.80
2018-04-08T17:29:07.871Z,27.18
2018-04-08T17:35:12.218Z,25.98
2018-04-08T17:41:16.591Z,24.46
2018-04-08T17:47:21.719Z,23.38
2018-04-08T17:53:26.061Z,22.29
2018-04-08T17:59:30.437Z,21.55
2018-04-08T18:05:35.568Z,20.90
2018-04-08T18:11:39.917Z,20.41
2018-04-08T18:17:44.255Z,20.11
2018-04-08T18:23:48.635Z,19.71
2018-04-08T18:29:53.727Z,19.26
2018-04-08T18:35:58.078Z,19.10
2018-04-08T18:42:02.430Z,18.76
2018-04-08T18:48:06.775Z,18.54
2018-04-08T18:54:11.132Z,18.18
2018-04-08T19:00:16.249Z,17.72
2018-04-08T19:06:20.598Z,17.49
2018-04-08T19:12:24.982Z,17.30
2018-04-08T19:18:29.330Z,16.92
2018-04-08T19:24:34.436Z,16.70
2018-04-08T19:30:38.789Z,16.40
2018-04-08T19:36:43.154Z,16.17
2018-04-08T19:42:48.269Z,16.23
2018-04-08T19:48:52.663Z,16.12
2018-04-08T19:54:57.797Z,15.83
2018-04-08T20:01:02.138Z,15.84
2018-04-08T20:07:06.478Z,15.55
2018-04-08T20:13:10.833Z,15.51
2018-04-08T20:19:15.182Z,15.39
2018-04-08T20:25:20.290Z,15.12
2018-04-08T20:31:24.647Z,15.08
2018-04-08T20:37:29.211Z,15.08
2018-04-08T20:43:33.582Z,14.89
2018-04-08T20:49:37.931Z,14.69
2018-04-08T20:55:42.300Z,14.47
2018-04-08T21:01:46.655Z,14.49
2018-04-08T21:07:51.019Z,14.42
2018-04-08T21:13:55.437Z,14.26
2018-04-08T21:19:59.791Z,14.27
2018-04-08T21:26:04.153Z,14.18
2018-04-08T21:32:08.494Z,14.26
2018-04-08T21:38:13.608Z,14.12
2018-04-08T21:44:17.956Z,13.98
2018-04-08T21:50:22.302Z,14.01
2018-04-08T21:56:26.659Z,13.87
2018-04-08T22:02:31.009Z,13.88
2018-04-08T22:08:36.137Z,13.71
2018-04-08T22:14:40.496Z,13.84
2018-04-08T22:20:44.836Z,13.85
2018-04-08T22:26:49.177Z,13.71
2018-04-08T22:32:53.538Z,13.75
2018-04-08T22:38:58.638Z,13.54
2018-04-08T22:45:02.989Z,13.27
2018-04-08T22:51:07.339Z,13.18
2018-04-08T22:57:11.686Z,12.94
2018-04-08T23:03:16.031Z,12.92
2018-04-08T23:09:20.382Z,12.80
2018-04-08T23:15:24.742Z,12.79
2018-04-08T23:21:29.865Z,12.77
2018-04-08T23:27:34.231Z,12.57
2018-04-08T23:33:38.573Z,12.73
2018-04-08T23:39:42.930Z,12.58
2018-04-08T23:45:48.044Z,12.66
2018-04-08T23:51:52.394Z,12.54
2018-04-08T23:57:56.739Z,12.61
